Time;durP1;ratioP1;P1;durP2;ratioP2;P2;SDS_P1;SDS_P2;PMS_P1;PMS_P2;Temp;Humidity;BMP_temperature;BMP_pressure;BME280_temperature;BME280_humidity;BME280_pressure;Samples;Min_cycle;Max_cycle;Signal;HPM_P1;HPM_P2
2023/04/28 00:00:30;;;;;;;13.65;10.77;;;6.00;99.90;;;;;;6162867;23;20012;-86
2023/04/28 00:02:56;;;;;;;12.13;10.57;;;5.90;99.90;;;;;;6187403;23;20013;-86
2023/04/28 00:05:22;;;;;;;13.70;10.40;;;5.90;99.90;;;;;;6190026;23;20086;-85
2023/04/28 00:07:47;;;;;;;14.73;10.43;;;5.90;99.90;;;;;;6189145;23;20013;-85
2023/04/28 00:10:13;;;;;;;13.13;10.57;;;5.90;99.90;;;;;;6164520;23;20408;-86
2023/04/28 00:12:39;;;;;;;11.00;9.82;;;5.80;99.90;;;;;;6189309;23;20027;-86
2023/04/28 00:15:06;;;;;;;12.90;10.70;;;5.80;99.90;;;;;;6188987;23;20015;-86
2023/04/28 00:17:31;;;;;;;12.82;10.15;;;5.80;99.90;;;;;;6216719;23;20087;-86
2023/04/28 00:19:57;;;;;;;14.98;10.18;;;5.90;99.90;;;;;;6215937;23;20020;-85
2023/04/28 00:22:23;;;;;;;13.88;10.32;;;5.80;99.90;;;;;;6189946;23;20290;-86
2023/04/28 00:24:49;;;;;;;13.93;9.70;;;5.80;99.90;;;;;;6164310;23;20012;-85
2023/04/28 00:27:14;;;;;;;16.17;10.18;;;5.80;99.90;;;;;;6189770;23;20106;-85
2023/04/28 00:29:40;;;;;;;16.58;10.50;;;5.80;99.90;;;;;;6189196;23;20020;-86
2023/04/28 00:32:06;;;;;;;13.10;10.05;;;5.80;99.90;;;;;;6189686;23;20360;-86
2023/04/28 00:34:33;;;;;;;14.45;10.05;;;5.90;99.90;;;;;;6215838;23;20009;-85
2023/04/28 00:36:58;;;;;;;12.48;10.18;;;5.90;99.90;;;;;;6165056;23;20345;-86
2023/04/28 00:39:25;;;;;;;14.80;9.88;;;5.90;99.90;;;;;;6190128;23;20008;-86
2023/04/28 00:41:51;;;;;;;11.60;9.23;;;5.90;99.90;;;;;;6189423;23;20060;-87
2023/04/28 00:44:17;;;;;;;13.52;10.82;;;5.90;99.90;;;;;;6215620;23;20031;-85
2023/04/28 00:46:43;;;;;;;13.35;9.80;;;5.90;99.90;;;;;;6216198;23;20016;-86
2023/04/28 00:49:09;;;;;;;14.07;9.32;;;5.90;99.90;;;;;;6189227;23;20075;-86
2023/04/28 00:51:35;;;;;;;15.15;10.23;;;6.30;99.90;;;;;;6164382;23;20024;-85
2023/04/28 00:54:00;;;;;;;13.98;9.77;;;5.90;99.90;;;;;;6165505;23;20004;-85
2023/04/28 00:56:29;;;;;;;13.73;9.98;;;6.00;99.90;;;;;;6164185;23;20146;-86
2023/04/28 00:58:56;;;;;;;13.02;9.80;;;6.00;99.90;;;;;;6189070;23;20048;-86
2023/04/28 01:01:24;;;;;;;14.20;9.60;;;5.90;99.90;;;;;;6165468;23;20027;-86
2023/04/28 01:03:50;;;;;;;12.70;9.13;;;5.90;99.90;;;;;;6189292;23;20067;-86
2023/04/28 01:06:16;;;;;;;12.70;9.55;;;5.90;99.90;;;;;;6164641;23;20340;-86
2023/04/28 01:08:46;;;;;;;13.65;9.48;;;5.90;99.90;;;;;;6165351;23;20408;-86
2023/04/28 01:11:13;;;;;;;12.82;9.60;;;5.90;99.90;;;;;;6216236;23;20088;-86
2023/04/28 01:13:39;;;;;;;15.55;9.68;;;5.80;99.90;;;;;;6215562;23;20028;-85
2023/04/28 01:16:06;;;;;;;12.80;9.55;;;5.80;99.90;;;;;;6163827;23;20470;-85
2023/04/28 01:18:32;;;;;;;11.32;9.80;;;5.80;99.90;;;;;;6190103;23;20008;-85
2023/04/28 01:20:58;;;;;;;13.93;9.82;;;5.80;99.90;;;;;;6216052;23;20015;-86
2023/04/28 01:23:23;;;;;;;13.77;10.18;;;5.80;99.90;;;;;;6164768;23;20017;-85
2023/04/28 01:25:49;;;;;;;14.77;10.25;;;6.00;99.90;;;;;;6189770;23;20023;-86
2023/04/28 01:28:15;;;;;;;14.00;10.70;;;5.90;99.90;;;;;;6189293;23;20450;-86
2023/04/28 01:30:40;;;;;;;12.65;9.77;;;5.90;99.90;;;;;;6188854;23;20092;-85
2023/04/28 01:33:06;;;;;;;16.50;11.38;;;5.90;99.90;;;;;;6216234;23;20095;-85
2023/04/28 01:35:32;;;;;;;16.45;11.40;;;5.80;99.90;;;;;;6189498;23;20016;-85
2023/04/28 01:37:57;;;;;;;18.05;11.73;;;5.90;99.90;;;;;;6189526;23;20009;-86
2023/04/28 01:40:23;;;;;;;15.00;11.50;;;5.90;99.90;;;;;;6164078;23;20408;-86
2023/04/28 01:42:49;;;;;;;16.30;12.10;;;5.90;99.90;;;;;;6190300;23;20091;-86
2023/04/28 01:45:15;;;;;;;15.05;11.40;;;5.90;99.90;;;;;;6189858;23;20023;-86
2023/04/28 01:47:41;;;;;;;20.27;12.95;;;5.90;99.90;;;;;;6189577;23;20017;-85
2023/04/28 01:50:07;;;;;;;19.15;12.77;;;5.90;99.90;;;;;;6190185;23;20083;-86
2023/04/28 01:52:32;;;;;;;14.77;12.65;;;5.90;99.90;;;;;;6189714;23;20586;-85
2023/04/28 01:54:58;;;;;;;17.27;12.98;;;5.90;99.90;;;;;;6216266;23;20081;-86
2023/04/28 01:57:24;;;;;;;18.65;13.63;;;5.90;99.90;;;;;;6188984;23;20016;-86
2023/04/28 01:59:50;;;;;;;20.50;14.95;;;5.90;99.90;;;;;;6216361;23;20008;-86
2023/04/28 02:02:16;;;;;;;20.45;14.93;;;5.90;99.90;;;;;;6164249;23;20273;-86
2023/04/28 02:04:42;;;;;;;24.42;15.43;;;5.90;99.90;;;;;;6188557;23;20045;-86
2023/04/28 02:07:07;;;;;;;20.65;14.40;;;5.80;99.90;;;;;;6189597;23;20075;-86
2023/04/28 02:09:33;;;;;;;19.25;14.65;;;5.80;99.90;;;;;;6189084;23;20004;-85
2023/04/28 02:11:59;;;;;;;19.20;14.70;;;5.80;99.90;;;;;;6188458;23;20044;-86
2023/04/28 02:14:24;;;;;;;22.30;15.02;;;5.80;99.90;;;;;;6163666;23;20020;-86
2023/04/28 02:16:50;;;;;;;20.20;15.15;;;5.80;99.90;;;;;;6163964;23;20082;-85
2023/04/28 02:19:16;;;;;;;23.25;16.02;;;6.10;99.90;;;;;;6189336;23;20005;-86
2023/04/28 02:21:42;;;;;;;17.58;15.45;;;5.70;99.90;;;;;;6164047;23;20016;-86
2023/04/28 02:24:08;;;;;;;19.50;15.73;;;5.70;99.90;;;;;;6189926;23;20009;-85
2023/04/28 02:26:34;;;;;;;20.90;15.50;;;5.70;99.90;;;;;;6188135;23;20355;-86
2023/04/28 02:29:00;;;;;;;19.23;15.43;;;5.70;99.90;;;;;;6188762;23;20013;-86
2023/04/28 02:31:25;;;;;;;21.42;15.80;;;5.70;99.90;;;;;;6188903;23;20023;-86
2023/04/28 02:33:51;;;;;;;27.90;17.10;;;5.70;99.90;;;;;;6189967;23;20389;-85
2023/04/28 02:36:17;;;;;;;21.20;16.23;;;6.30;99.90;;;;;;6188488;23;20016;-85
2023/04/28 02:38:43;;;;;;;22.92;16.67;;;5.70;99.90;;;;;;6189135;23;20013;-86
2023/04/28 02:41:09;;;;;;;21.92;17.77;;;5.70;99.90;;;;;;6187867;23;20023;-85
2023/04/28 02:43:36;;;;;;;22.98;17.58;;;6.10;99.90;;;;;;6215431;23;20012;-85
2023/04/28 02:46:02;;;;;;;25.10;18.20;;;5.70;99.90;;;;;;6189197;23;20012;-85
2023/04/28 02:48:28;;;;;;;23.00;17.33;;;6.00;99.90;;;;;;6163549;23;20013;-86
2023/04/28 02:50:54;;;;;;;22.98;17.00;;;5.70;99.90;;;;;;6163997;23;20038;-86
2023/04/28 02:53:20;;;;;;;21.95;17.55;;;5.70;99.90;;;;;;6189459;23;20012;-85
2023/04/28 02:55:46;;;;;;;24.65;18.55;;;5.70;99.90;;;;;;6215563;23;20008;-85
2023/04/28 02:58:12;;;;;;;24.75;17.73;;;5.70;99.90;;;;;;6163365;23;20020;-86
2023/04/28 03:00:37;;;;;;;25.20;18.30;;;5.70;99.90;;;;;;6164585;23;20004;-86
2023/04/28 03:03:03;;;;;;;23.58;19.10;;;5.70;99.90;;;;;;6164974;23;20087;-86
2023/04/28 03:05:28;;;;;;;23.50;18.35;;;5.80;99.90;;;;;;6214771;23;20023;-85
2023/04/28 03:07:54;;;;;;;33.17;20.10;;;5.70;99.90;;;;;;6189051;23;20020;-86
2023/04/28 03:10:20;;;;;;;26.95;19.75;;;5.70;99.90;;;;;;6163682;23;20009;-85
2023/04/28 03:12:45;;;;;;;26.33;19.77;;;5.70;99.90;;;;;;6163225;23;20116;-86
2023/04/28 03:15:11;;;;;;;26.70;20.13;;;5.70;99.90;;;;;;6188562;23;20044;-86
2023/04/28 03:17:40;;;;;;;29.55;20.48;;;5.70;99.90;;;;;;6188568;23;20264;-85
2023/04/28 03:20:07;;;;;;;27.98;21.48;;;5.70;99.90;;;;;;6163990;23;20087;-86
2023/04/28 03:22:33;;;;;;;30.25;20.42;;;5.60;99.90;;;;;;6164040;23;20040;-86
2023/04/28 03:24:58;;;;;;;31.83;21.17;;;6.10;99.90;;;;;;6163351;23;20024;-86
2023/04/28 03:27:24;;;;;;;33.63;21.35;;;5.60;99.90;;;;;;6188480;23;20009;-86
2023/04/28 03:29:50;;;;;;;24.15;19.98;;;5.60;99.90;;;;;;6163189;23;20095;-86
2023/04/28 03:32:16;;;;;;;31.60;21.73;;;5.60;99.90;;;;;;6163430;23;20012;-86
2023/04/28 03:34:41;;;;;;;29.52;22.02;;;5.60;99.90;;;;;;6188477;23;20015;-85
2023/04/28 03:37:07;;;;;;;33.60;21.33;;;6.30;99.90;;;;;;6187938;23;20464;-86
2023/04/28 03:39:32;;;;;;;27.83;21.33;;;5.60;99.90;;;;;;6214472;23;20040;-86
2023/04/28 03:41:58;;;;;;;26.60;21.58;;;5.60;99.90;;;;;;6188047;23;20397;-85
2023/04/28 03:44:24;;;;;;;29.73;21.52;;;5.60;99.90;;;;;;6188170;23;20008;-85
2023/04/28 03:46:50;;;;;;;27.30;21.30;;;5.60;99.90;;;;;;6163211;23;20012;-86
2023/04/28 03:49:15;;;;;;;29.80;20.73;;;5.60;99.90;;;;;;6163309;23;20013;-85
2023/04/28 03:51:41;;;;;;;29.40;21.27;;;5.60;99.90;;;;;;6187635;23;20116;-84
2023/04/28 03:54:07;;;;;;;28.92;21.73;;;5.60;99.90;;;;;;6162165;23;20024;-85
2023/04/28 03:56:33;;;;;;;27.58;20.85;;;5.60;99.90;;;;;;6162643;23;20040;-85
2023/04/28 03:58:58;;;;;;;30.95;22.83;;;5.60;99.90;;;;;;6162505;23;20394;-86
2023/04/28 04:01:24;;;;;;;31.63;21.98;;;5.60;99.90;;;;;;6163369;23;20108;-85
2023/04/28 04:03:49;;;;;;;28.48;20.70;;;5.60;99.90;;;;;;6163132;23;20095;-86
2023/04/28 04:06:15;;;;;;;29.08;20.85;;;5.60;99.90;;;;;;6187835;23;20462;-86
2023/04/28 04:08:41;;;;;;;29.50;21.65;;;5.60;99.90;;;;;;6187976;23;20013;-85
2023/04/28 04:11:07;;;;;;;27.83;20.25;;;5.60;99.90;;;;;;6214578;23;20008;-85
2023/04/28 04:13:33;;;;;;;29.45;20.73;;;5.60;99.90;;;;;;6187359;23;20044;-86
2023/04/28 04:15:59;;;;;;;24.23;20.58;;;5.60;99.90;;;;;;6187421;23;20013;-86
2023/04/28 04:18:25;;;;;;;27.40;20.13;;;5.60;99.90;;;;;;6213859;23;20013;-86
2023/04/28 04:20:52;;;;;;;25.77;21.05;;;5.70;99.90;;;;;;6162875;23;20420;-85
2023/04/28 04:23:18;;;;;;;30.70;20.67;;;5.70;99.90;;;;;;6186824;23;20095;-85
2023/04/28 04:25:44;;;;;;;26.13;20.17;;;5.70;99.90;;;;;;6187680;23;20336;-85
2023/04/28 04:28:09;;;;;;;26.70;20.08;;;5.70;99.90;;;;;;6188385;23;20083;-85
2023/04/28 04:30:35;;;;;;;29.20;20.70;;;5.70;99.90;;;;;;6214450;23;20012;-86
2023/04/28 04:33:01;;;;;;;28.38;20.95;;;5.70;99.90;;;;;;6187618;23;20313;-86
2023/04/28 04:35:26;;;;;;;25.27;19.75;;;5.70;99.90;;;;;;6187989;23;20321;-85
2023/04/28 04:37:52;;;;;;;28.58;19.92;;;6.50;99.90;;;;;;6187036;23;20009;-86
2023/04/28 04:40:18;;;;;;;24.35;18.90;;;5.70;99.90;;;;;;6188678;23;20012;-86
2023/04/28 04:42:43;;;;;;;26.17;19.50;;;5.70;99.90;;;;;;6188027;23;20008;-85
2023/04/28 04:45:09;;;;;;;31.17;20.13;;;5.90;99.90;;;;;;6162615;23;20013;-85
2023/04/28 04:47:35;;;;;;;27.77;19.95;;;5.70;99.90;;;;;;6215053;23;20455;-86
2023/04/28 04:50:00;;;;;;;26.10;20.27;;;5.70;99.90;;;;;;6188650;23;20043;-86
2023/04/28 04:52:26;;;;;;;25.15;19.27;;;6.40;99.90;;;;;;6189740;23;20079;-85
2023/04/28 04:54:52;;;;;;;28.02;20.13;;;5.80;99.90;;;;;;6164524;23;20088;-86
2023/04/28 04:57:18;;;;;;;27.65;19.23;;;6.10;99.90;;;;;;6164787;23;20032;-86
2023/04/28 04:59:43;;;;;;;28.63;20.48;;;6.70;99.90;;;;;;6189703;23;20012;-86
2023/04/28 05:02:09;;;;;;;23.83;19.20;;;6.10;99.90;;;;;;6164098;23;20008;-86
2023/04/28 05:04:35;;;;;;;26.88;19.77;;;5.80;99.90;;;;;;6189362;23;20079;-85
2023/04/28 05:07:00;;;;;;;25.80;19.52;;;5.80;99.90;;;;;;6163575;23;20027;-86
2023/04/28 05:09:26;;;;;;;29.35;19.98;;;5.80;99.90;;;;;;6189939;23;20051;-85
2023/04/28 05:11:52;;;;;;;30.40;20.23;;;5.80;99.90;;;;;;6189260;23;20084;-84
2023/04/28 05:14:18;;;;;;;28.25;18.73;;;6.60;99.90;;;;;;6215969;23;20098;-86
2023/04/28 05:16:44;;;;;;;25.00;20.05;;;5.90;99.90;;;;;;6164405;23;20448;-86
2023/04/28 05:19:10;;;;;;;25.25;19.58;;;5.90;99.90;;;;;;6162598;23;20020;-86
2023/04/28 05:21:35;;;;;;;32.38;19.83;;;5.90;99.90;;;;;;6187153;23;20201;-86
2023/04/28 05:24:01;;;;;;;25.58;18.73;;;6.00;99.90;;;;;;6162724;23;20024;-86
2023/04/28 05:26:27;;;;;;;27.35;19.45;;;6.00;99.90;;;;;;6214349;23;20078;-86
2023/04/28 05:28:53;;;;;;;25.25;18.85;;;6.00;99.90;;;;;;6187798;23;20027;-86
2023/04/28 05:31:19;;;;;;;23.83;18.63;;;6.10;99.90;;;;;;6187296;23;20027;-86
2023/04/28 05:33:44;;;;;;;24.42;18.42;;;6.10;99.90;;;;;;6187785;23;20455;-86
2023/04/28 05:36:10;;;;;;;24.27;18.88;;;6.10;99.90;;;;;;6186688;23;20012;-87
2023/04/28 05:38:36;;;;;;;24.85;18.88;;;7.10;99.90;;;;;;6162464;23;20439;-86
2023/04/28 05:41:02;;;;;;;26.55;19.17;;;6.50;99.90;;;;;;6187208;23;20408;-86
2023/04/28 05:43:27;;;;;;;23.85;17.85;;;6.30;99.90;;;;;;6162667;23;20427;-86
2023/04/28 05:45:53;;;;;;;22.38;18.48;;;6.30;99.90;;;;;;6213852;23;20048;-87
2023/04/28 05:48:19;;;;;;;25.73;19.10;;;6.40;99.90;;;;;;6162398;23;20013;-86
2023/04/28 05:50:44;;;;;;;22.90;18.90;;;6.40;99.90;;;;;;6161924;23;20017;-87
2023/04/28 05:53:10;;;;;;;26.10;18.30;;;7.40;99.90;;;;;;6162356;23;20012;-86
2023/04/28 05:55:36;;;;;;;23.48;18.33;;;6.50;99.90;;;;;;6187039;23;20586;-87
2023/04/28 05:58:02;;;;;;;25.77;18.95;;;6.70;99.90;;;;;;6162139;23;20017;-86
2023/04/28 06:00:28;;;;;;;22.75;17.23;;;7.30;99.90;;;;;;6162016;23;20012;-86
2023/04/28 06:02:54;;;;;;;23.08;18.23;;;6.90;99.90;;;;;;6213702;23;20012;-86
2023/04/28 06:05:20;;;;;;;21.92;16.85;;;6.70;99.90;;;;;;6212920;23;20019;-86
2023/04/28 06:07:46;;;;;;;20.50;16.75;;;6.70;99.90;;;;;;6161893;23;20395;-86
2023/04/28 06:10:12;;;;;;;23.13;16.95;;;6.80;99.90;;;;;;6213835;23;20044;-86
2023/04/28 06:12:38;;;;;;;19.92;16.77;;;6.90;99.90;;;;;;6161764;23;20020;-86
2023/04/28 06:15:05;;;;;;;22.35;17.17;;;7.80;99.90;;;;;;6161716;23;20012;-86
2023/04/28 06:17:32;;;;;;;21.10;17.45;;;6.90;99.90;;;;;;6162133;23;20009;-86
2023/04/28 06:19:58;;;;;;;21.20;17.15;;;7.20;99.90;;;;;;6161369;23;20005;-86
2023/04/28 06:22:24;;;;;;;20.50;16.60;;;7.50;99.90;;;;;;6187355;23;20032;-87
2023/04/28 06:24:50;;;;;;;21.48;16.55;;;7.20;99.90;;;;;;6161857;23;20531;-86
2023/04/28 06:27:16;;;;;;;21.27;17.20;;;7.30;99.90;;;;;;6213587;23;20392;-86
2023/04/28 06:29:42;;;;;;;20.95;16.73;;;7.40;99.90;;;;;;6213750;23;20104;-86
2023/04/28 06:32:07;;;;;;;22.20;17.35;;;7.00;99.90;;;;;;6186139;23;20017;-86
2023/04/28 06:34:36;;;;;;;22.77;16.63;;;7.10;99.90;;;;;;6186801;23;20009;-87
2023/04/28 06:37:02;;;;;;;26.80;16.95;;;7.10;99.90;;;;;;6186346;23;20048;-86
2023/04/28 06:39:28;;;;;;;22.30;16.88;;;7.10;99.90;;;;;;6161626;23;20015;-86
2023/04/28 06:41:53;;;;;;;22.30;17.98;;;7.10;99.90;;;;;;6186848;23;20015;-86
2023/04/28 06:44:19;;;;;;;26.15;17.40;;;8.00;99.90;;;;;;6186827;23;20280;-86
2023/04/28 06:46:45;;;;;;;22.80;17.17;;;8.20;99.90;;;;;;6186218;23;20317;-86
2023/04/28 06:49:10;;;;;;;20.05;16.13;;;7.40;99.90;;;;;;6161841;23;20335;-87
2023/04/28 06:51:36;;;;;;;20.13;15.85;;;7.50;99.90;;;;;;6186402;23;20367;-86
2023/04/28 06:54:02;;;;;;;22.10;17.48;;;7.60;99.90;;;;;;6186333;23;20321;-87
2023/04/28 06:56:28;;;;;;;23.92;16.88;;;7.60;99.90;;;;;;6213259;23;20013;-87
2023/04/28 06:58:57;;;;;;;20.50;16.35;;;7.60;99.90;;;;;;6213064;23;20054;-86
2023/04/28 07:01:26;;;;;;;23.55;17.05;;;7.50;99.90;;;;;;6160707;23;20332;-86
2023/04/28 07:03:51;;;;;;;18.38;16.30;;;8.00;99.90;;;;;;6186358;23;20471;-86
2023/04/28 07:06:17;;;;;;;21.45;17.13;;;7.70;99.90;;;;;;6185950;23;20012;-86
2023/04/28 07:08:43;;;;;;;23.75;16.88;;;8.00;99.90;;;;;;6186428;23;20008;-86
2023/04/28 07:11:08;;;;;;;21.90;17.27;;;8.70;99.90;;;;;;6186420;23;20090;-86
2023/04/28 07:13:34;;;;;;;20.50;16.63;;;8.90;99.90;;;;;;6161225;23;20024;-86
2023/04/28 07:16:00;;;;;;;21.25;15.57;;;8.30;99.90;;;;;;6212493;23;20008;-87
2023/04/28 07:18:26;;;;;;;21.55;16.48;;;8.40;99.90;;;;;;6161165;23;20036;-86
2023/04/28 07:20:51;;;;;;;20.85;15.82;;;9.10;99.90;;;;;;6161315;23;20019;-86
2023/04/28 07:23:17;;;;;;;20.08;16.05;;;8.80;99.90;;;;;;6161604;23;20000;-86
2023/04/28 07:25:43;;;;;;;18.75;15.43;;;8.50;99.90;;;;;;6186230;23;20016;-86
2023/04/28 07:28:08;;;;;;;25.15;14.25;;;8.50;99.90;;;;;;6186346;23;20404;-87
2023/04/28 07:30:35;;;;;;;20.17;15.25;;;9.30;99.90;;;;;;6212161;23;20161;-86
2023/04/28 07:33:01;;;;;;;17.50;14.60;;;8.80;99.90;;;;;;6186160;23;20325;-86
2023/04/28 07:35:27;;;;;;;19.35;15.20;;;9.70;99.90;;;;;;6160997;23;20012;-86
2023/04/28 07:37:54;;;;;;;17.33;14.20;;;9.60;99.90;;;;;;6212663;23;20019;-86
2023/04/28 07:40:20;;;;;;;19.73;13.82;;;8.90;99.90;;;;;;6161017;23;20013;-87
2023/04/28 07:42:46;;;;;;;19.48;14.23;;;9.40;99.90;;;;;;6161234;23;20008;-86
2023/04/28 07:45:11;;;;;;;17.75;13.63;;;9.10;99.90;;;;;;6212017;23;20013;-86
2023/04/28 07:47:37;;;;;;;19.25;14.20;;;9.00;99.90;;;;;;6212885;23;20070;-86
2023/04/28 07:50:05;;;;;;;16.23;13.75;;;9.10;99.90;;;;;;6161107;23;20040;-87
2023/04/28 07:52:31;;;;;;;21.05;13.88;;;9.00;99.90;;;;;;6160953;23;20016;-86
2023/04/28 07:54:58;;;;;;;20.05;14.45;;;9.20;99.90;;;;;;6212745;23;20240;-86
2023/04/28 07:57:24;;;;;;;20.45;13.45;;;9.40;99.90;;;;;;6212810;23;20008;-86
2023/04/28 07:59:50;;;;;;;17.40;13.50;;;9.20;99.90;;;;;;6160085;23;20008;-87
2023/04/28 08:02:16;;;;;;;16.63;13.38;;;9.30;99.90;;;;;;6185781;23;20047;-86
2023/04/28 08:04:41;;;;;;;19.65;13.77;;;9.30;99.90;;;;;;6185792;23;20087;-87
2023/04/28 08:07:10;;;;;;;17.13;13.63;;;9.00;99.90;;;;;;6212968;23;20498;-87
2023/04/28 08:09:36;;;;;;;19.95;14.52;;;9.60;99.90;;;;;;6185515;23;20183;-86
2023/04/28 08:12:01;;;;;;;16.25;12.85;;;9.80;99.90;;;;;;6185915;23;20020;-87
2023/04/28 08:14:27;;;;;;;17.33;13.75;;;9.70;99.90;;;;;;6185414;23;20536;-86
2023/04/28 08:16:53;;;;;;;16.15;12.98;;;9.80;99.90;;;;;;6185817;23;20012;-86
2023/04/28 08:19:19;;;;;;;20.20;13.05;;;10.30;99.90;;;;;;6161064;23;20008;-87
2023/04/28 08:21:45;;;;;;;17.45;13.20;;;9.80;99.90;;;;;;6185931;23;20444;-86
2023/04/28 08:24:10;;;;;;;16.48;12.82;;;9.90;99.90;;;;;;6161474;23;20009;-86
2023/04/28 08:26:37;;;;;;;16.35;12.38;;;10.50;99.90;;;;;;6188215;23;20016;-86
2023/04/28 08:29:03;;;;;;;15.13;13.35;;;10.50;99.90;;;;;;6187191;23;20325;-86
2023/04/28 08:31:32;;;;;;;22.05;13.65;;;10.30;99.90;;;;;;6162898;23;20014;-87
2023/04/28 08:33:57;;;;;;;16.80;12.55;;;10.10;99.90;;;;;;6187855;23;20337;-86
2023/04/28 08:36:25;;;;;;;16.95;12.68;;;10.50;99.90;;;;;;6162844;23;20013;-86
2023/04/28 08:38:51;;;;;;;16.40;12.48;;;10.60;99.90;;;;;;6214599;23;20008;-86
2023/04/28 08:41:18;;;;;;;16.20;13.20;;;10.50;99.90;;;;;;6188052;23;20036;-86
2023/04/28 08:43:45;;;;;;;16.10;12.52;;;10.50;99.90;;;;;;6187125;23;20000;-86
2023/04/28 08:46:13;;;;;;;16.48;13.30;;;10.00;99.90;;;;;;6214194;23;20016;-87
2023/04/28 08:48:47;;;;;;;15.60;12.15;;;10.10;99.90;;;;;;6162764;23;20017;-87
2023/04/28 08:51:15;;;;;;;14.57;12.05;;;10.00;99.90;;;;;;6187886;23;20067;-87
2023/04/28 08:53:44;;;;;;;15.07;12.50;;;10.60;99.90;;;;;;6162207;23;20020;-86
2023/04/28 08:56:12;;;;;;;17.60;12.38;;;10.60;99.90;;;;;;6187237;23;20456;-86
2023/04/28 08:58:38;;;;;;;19.05;12.98;;;10.00;99.90;;;;;;6213374;23;20017;-86
2023/04/28 09:01:04;;;;;;;19.10;13.80;;;10.50;99.90;;;;;;6213821;23;20489;-86
2023/04/28 09:03:33;;;;;;;17.67;13.32;;;9.90;99.90;;;;;;6214333;23;20016;-86
2023/04/28 09:06:01;;;;;;;20.70;15.07;;;9.90;99.90;;;;;;6162460;23;20494;-86
2023/04/28 09:08:27;;;;;;;19.92;15.95;;;9.90;99.90;;;;;;6187273;23;20087;-86
2023/04/28 09:11:07;;;;;;;19.48;15.13;;;10.50;99.90;;;;;;6162809;23;20430;-86
2023/04/28 09:13:33;;;;;;;19.55;14.15;;;10.30;99.90;;;;;;6182055;23;20028;-86
2023/04/28 09:16:01;;;;;;;19.88;14.05;;;10.50;99.90;;;;;;6182086;23;20423;-86
2023/04/28 09:18:28;;;;;;;15.93;12.98;;;11.00;99.90;;;;;;6182216;23;20008;-85
2023/04/28 09:21:08;;;;;;;17.58;12.90;;;11.00;99.90;;;;;;6157386;23;20024;-86
2023/04/28 09:23:48;;;;;;;17.98;13.98;;;10.90;99.90;;;;;;6181913;23;20013;-86
2023/04/28 09:26:13;;;;;;;19.27;13.00;;;11.10;99.90;;;;;;6181516;23;20013;-86
2023/04/28 09:28:39;;;;;;;22.77;13.35;;;11.10;99.90;;;;;;6183731;23;20063;-86
2023/04/28 09:31:05;;;;;;;16.65;14.18;;;11.30;99.90;;;;;;6181869;23;20100;-86
2023/04/28 09:33:30;;;;;;;15.57;12.40;;;11.20;99.90;;;;;;6156908;23;20013;-86
2023/04/28 09:35:56;;;;;;;22.88;12.52;;;11.50;99.90;;;;;;6156400;23;20082;-86
2023/04/28 09:38:22;;;;;;;17.35;12.85;;;12.40;99.90;;;;;;6183655;23;20079;-86
2023/04/28 09:40:49;;;;;;;14.20;12.10;;;12.00;99.90;;;;;;6156344;23;20352;-86
2023/04/28 09:43:29;;;;;;;14.60;11.98;;;12.20;99.90;;;;;;6181661;23;20313;-86
2023/04/28 09:45:58;;;;;;;17.80;12.48;;;12.00;99.90;;;;;;6182132;23;20017;-86
2023/04/28 09:48:28;;;;;;;19.05;12.52;;;12.40;99.90;;;;;;6181832;23;20380;-86
2023/04/28 09:50:55;;;;;;;15.23;11.98;;;12.80;99.90;;;;;;6181933;23;20017;-86
2023/04/28 09:53:27;;;;;;;16.75;12.52;;;12.90;99.90;;;;;;6157368;23;20017;-86
2023/04/28 09:55:55;;;;;;;16.90;12.60;;;12.80;99.90;;;;;;6181254;23;20021;-86
2023/04/28 09:58:22;;;;;;;18.42;11.95;;;12.30;99.90;;;;;;6181524;23;20040;-86
2023/04/28 10:00:59;;;;;;;14.85;11.93;;;12.50;99.90;;;;;;6182016;23;20085;-86
2023/04/28 10:03:27;;;;;;;17.52;12.35;;;13.20;99.90;;;;;;6181697;23;20048;-85
2023/04/28 10:05:53;;;;;;;14.35;11.05;;;12.80;99.90;;;;;;6181539;23;20345;-86
2023/04/28 10:08:20;;;;;;;17.50;10.95;;;13.30;99.90;;;;;;6183344;23;20024;-86
2023/04/28 10:10:53;;;;;;;14.63;11.05;;;13.10;99.90;;;;;;6156132;23;20040;-86
2023/04/28 10:13:20;;;;;;;14.38;12.00;;;12.90;99.90;;;;;;6212882;23;20031;-87
2023/04/28 10:15:46;;;;;;;15.70;11.60;;;13.20;99.90;;;;;;6213261;23;20020;-86
2023/04/28 10:18:16;;;;;;;15.18;11.25;;;13.20;99.90;;;;;;6161911;23;20383;-86
2023/04/28 10:20:45;;;;;;;14.75;10.82;;;13.30;99.90;;;;;;6161327;23;20063;-86
2023/04/28 10:23:20;;;;;;;16.40;11.02;;;13.80;99.90;;;;;;6186333;23;20058;-86
2023/04/28 10:25:48;;;;;;;14.20;11.82;;;13.70;99.90;;;;;;6185801;23;20089;-86
2023/04/28 10:28:15;;;;;;;15.45;11.80;;;13.90;99.90;;;;;;6186453;23;20015;-86
2023/04/28 10:30:41;;;;;;;12.38;10.25;;;13.80;99.90;;;;;;6213275;23;20027;-86
2023/04/28 10:33:12;;;;;;;12.23;10.70;;;13.60;99.90;;;;;;6186830;23;20012;-86
2023/04/28 10:35:39;;;;;;;14.50;10.43;;;13.70;99.90;;;;;;6161516;23;20413;-87
2023/04/28 10:38:12;;;;;;;14.38;10.85;;;13.60;99.90;;;;;;6161488;23;20080;-86
2023/04/28 10:40:40;;;;;;;15.07;11.07;;;13.70;99.90;;;;;;6186180;23;20012;-86
2023/04/28 10:43:07;;;;;;;15.65;11.00;;;13.70;99.90;;;;;;6186324;23;20017;-86
2023/04/28 10:45:51;;;;;;;16.63;10.90;;;14.30;99.90;;;;;;6213209;23;20016;-86
2023/04/28 10:48:19;;;;;;;14.07;10.00;;;13.80;99.90;;;;;;6162447;23;20063;-85
2023/04/28 10:51:03;;;;;;;17.77;11.77;;;13.80;99.90;;;;;;6164324;23;20309;-85
2023/04/28 10:53:44;;;;;;;13.32;10.90;;;13.90;99.90;;;;;;6162825;23;20466;-86
2023/04/28 10:56:12;;;;;;;13.35;10.73;;;13.90;99.90;;;;;;6189029;23;20095;-85
2023/04/28 10:58:42;;;;;;;12.50;9.70;;;13.70;99.90;;;;;;6189264;23;20067;-87
2023/04/28 11:01:20;;;;;;;13.82;10.43;;;13.60;99.90;;;;;;6189546;23;20021;-86
2023/04/28 11:03:46;;;;;;;16.45;11.43;;;13.60;99.90;;;;;;6188093;23;20024;-86
2023/04/28 11:06:28;;;;;;;15.95;10.85;;;13.50;99.90;;;;;;6163594;23;20400;-86
2023/04/28 11:08:56;;;;;;;14.98;10.98;;;13.60;99.90;;;;;;6163634;23;20024;-85
2023/04/28 11:11:28;;;;;;;13.57;10.57;;;13.40;99.90;;;;;;6162919;23;20016;-86
2023/04/28 11:14:17;;;;;;;22.25;11.65;;;13.20;99.90;;;;;;6163509;23;20067;-86
2023/04/28 11:17:00;;;;;;;14.68;10.65;;;13.20;99.90;;;;;;6187291;23;20404;-86
2023/04/28 11:19:27;;;;;;;12.60;10.73;;;13.20;99.90;;;;;;6215014;23;20016;-84
2023/04/28 11:21:56;;;;;;;11.80;10.50;;;13.50;99.90;;;;;;6215709;23;20012;-85
2023/04/28 11:24:24;;;;;;;14.77;10.88;;;13.40;99.90;;;;;;6162354;23;20415;-85
2023/04/28 11:26:51;;;;;;;12.90;10.15;;;13.70;99.90;;;;;;6163203;23;20321;-85
2023/04/28 11:29:17;;;;;;;15.70;10.65;;;13.70;99.90;;;;;;6187933;23;20023;-86
2023/04/28 11:31:50;;;;;;;17.02;11.07;;;13.90;99.90;;;;;;6187586;23;20047;-86
2023/04/28 11:34:20;;;;;;;13.80;9.52;;;14.10;99.90;;;;;;6162517;23;20034;-86
2023/04/28 11:36:46;;;;;;;18.98;10.48;;;14.20;99.90;;;;;;6187274;23;20012;-86
2023/04/28 11:39:13;;;;;;;12.38;10.27;;;14.30;99.90;;;;;;6188369;23;20009;-86
2023/04/28 11:41:40;;;;;;;13.52;10.48;;;14.40;99.90;;;;;;6187965;23;20013;-85
2023/04/28 11:44:16;;;;;;;14.23;10.13;;;14.60;99.90;;;;;;6163055;23;20044;-85
2023/04/28 11:46:56;;;;;;;13.75;10.90;;;14.80;99.90;;;;;;6187726;23;20042;-85
2023/04/28 11:49:37;;;;;;;12.32;9.07;;;14.80;99.90;;;;;;6162645;23;20124;-86
2023/04/28 11:52:05;;;;;;;15.60;10.98;;;14.60;99.90;;;;;;6187522;23;20016;-86
2023/04/28 11:54:31;;;;;;;12.10;9.45;;;14.50;99.90;;;;;;6188056;23;20016;-85
2023/04/28 11:56:59;;;;;;;11.02;9.68;;;14.50;99.90;;;;;;6187117;23;20067;-86
2023/04/28 11:59:27;;;;;;;14.43;9.77;;;14.30;99.90;;;;;;6162016;23;20013;-86
2023/04/28 12:01:58;;;;;;;14.30;10.30;;;14.30;99.90;;;;;;6187811;23;20347;-85
2023/04/28 12:04:37;;;;;;;13.27;10.23;;;14.10;99.90;;;;;;6162567;23;20009;-86
2023/04/28 12:07:09;;;;;;;12.02;10.27;;;14.00;99.90;;;;;;6162505;23;20091;-86
2023/04/28 12:09:36;;;;;;;12.00;9.55;;;14.10;99.90;;;;;;6162707;23;20023;-87
2023/04/28 12:12:04;;;;;;;12.90;10.50;;;14.10;99.90;;;;;;6187418;23;20012;-86
2023/04/28 12:14:34;;;;;;;12.00;10.50;;;14.10;99.90;;;;;;6162437;23;20060;-86
2023/04/28 12:17:00;;;;;;;12.55;9.63;;;14.20;99.90;;;;;;6214415;23;20084;-86
2023/04/28 12:19:26;;;;;;;13.77;10.52;;;14.20;99.90;;;;;;6187101;23;20091;-86
2023/04/28 12:22:00;;;;;;;12.43;9.80;;;14.40;99.90;;;;;;6212888;23;20455;-86
2023/04/28 12:24:25;;;;;;;12.35;10.35;;;14.30;99.90;;;;;;6162346;23;20015;-86
2023/04/28 12:26:52;;;;;;;15.20;10.45;;;14.40;99.90;;;;;;6162068;23;20013;-86
2023/04/28 12:29:40;;;;;;;13.60;10.80;;;14.40;99.90;;;;;;6162571;23;20039;-86
2023/04/28 12:32:07;;;;;;;14.85;10.57;;;14.50;99.90;;;;;;6187681;23;20079;-85
2023/04/28 12:34:34;;;;;;;16.67;10.77;;;14.40;99.90;;;;;;6187311;23;20016;-86